Fort Bliss, Texas
Current Conditions -  °F | °C
As of 10:58 PM on Monday 20 Oct 2014 (Local Time) from KBIF Reporting Station
Overcast Overcast  
Wind Chill: 60°   Ceiling: 8500
Heat Index: 60°   Visibility: 10mi
Dew Point: 55°   Wind: 6mph
Humidity: 84%   Direction: 10°N
Pressure: 30.08"   Gusts: NA
Location:  31.8335°N, 106.423°W
Report Text: KBIF 210458Z AUTO 01005KT 10SM BKN085 OVC120 16/13 A3008 RMK AO2 SLP141 T01550129 $
Loading
Personal Weather Stations






























Interactive Weather Map
Tropical Storm Tracking
New forecast layout! Learn more

10-Day Weather Forecast

Advertisements
Track Severe Weather on mobile